createdAt,value
2022-11-09T00:00:17.119Z,13.37
2022-11-09T00:05:20.767Z,13.37
2022-11-09T00:10:24.414Z,13.38
2022-11-09T00:15:29.696Z,13.41
2022-11-09T00:20:33.738Z,13.46
2022-11-09T00:25:37.417Z,13.42
2022-11-09T00:30:43.018Z,13.21
2022-11-09T00:35:46.711Z,12.13
2022-11-09T00:40:50.542Z,11.73
2022-11-09T00:45:55.592Z,11.87
2022-11-09T00:50:59.597Z,11.92
2022-11-09T00:56:05.996Z,11.95
2022-11-09T01:01:13.955Z,11.97
2022-11-09T01:06:20.281Z,11.96
2022-11-09T01:11:24.852Z,11.95
2022-11-09T01:16:30.396Z,11.94
2022-11-09T01:21:34.227Z,11.85
2022-11-09T01:26:38.277Z,11.84
2022-11-09T01:31:43.302Z,11.85
2022-11-09T01:36:47.030Z,11.82
2022-11-09T01:41:50.710Z,11.76
2022-11-09T01:46:58.084Z,11.72
2022-11-09T01:52:06.557Z,11.74
2022-11-09T01:57:16.958Z,11.75
2022-11-09T02:02:22.360Z,11.72
2022-11-09T02:07:26.671Z,11.73
2022-11-09T02:12:32.850Z,11.79
2022-11-09T02:17:38.025Z,11.76
2022-11-09T02:22:43.576Z,11.80
2022-11-09T02:27:47.570Z,11.82
2022-11-09T02:32:51.314Z,11.86
2022-11-09T02:37:56.928Z,11.87
2022-11-09T02:43:01.815Z,11.88
2022-11-09T02:48:06.339Z,11.84
2022-11-09T02:53:13.006Z,11.96
2022-11-09T02:58:17.801Z,11.91
2022-11-09T03:03:21.887Z,11.91
2022-11-09T03:08:28.492Z,11.90
2022-11-09T03:13:32.590Z,11.89
2022-11-09T03:18:36.760Z,11.93
2022-11-09T03:23:42.092Z,11.87
2022-11-09T03:28:45.846Z,11.89
2022-11-09T03:33:49.750Z,11.90
2022-11-09T03:38:54.873Z,11.85
2022-11-09T03:43:58.787Z,11.76
2022-11-09T03:49:02.617Z,11.69
2022-11-09T03:54:07.963Z,11.59
2022-11-09T03:59:11.647Z,11.60
2022-11-09T04:04:15.335Z,11.61
2022-11-09T04:09:20.454Z,11.52
2022-11-09T04:14:24.235Z,11.47
2022-11-09T04:19:27.933Z,11.50
2022-11-09T04:24:33.038Z,11.46
2022-11-09T04:29:37.691Z,11.54
2022-11-09T04:34:42.186Z,11.59
2022-11-09T04:39:47.199Z,11.51
2022-11-09T04:44:50.887Z,11.47
2022-11-09T04:49:54.532Z,11.47
2022-11-09T04:54:59.587Z,11.51
2022-11-09T05:00:03.652Z,11.48
2022-11-09T05:05:08.473Z,11.46
2022-11-09T05:10:13.582Z,11.38
2022-11-09T05:15:17.343Z,11.39
2022-11-09T05:20:21.403Z,11.35
2022-11-09T05:25:26.473Z,11.37
2022-11-09T05:30:30.331Z,11.29
2022-11-09T05:35:34.194Z,11.26
2022-11-09T05:40:39.203Z,11.19
2022-11-09T05:45:44.063Z,11.15
2022-11-09T05:50:48.226Z,11.16
2022-11-09T05:55:53.901Z,11.08
2022-11-09T06:00:59.789Z,11.09
2022-11-09T06:06:08.336Z,11.12
2022-11-09T06:11:22.817Z,11.10
2022-11-09T06:16:27.433Z,11.09
2022-11-09T06:21:31.144Z,11.10
2022-11-09T06:26:36.519Z,11.09
2022-11-09T06:31:40.357Z,11.10
2022-11-09T06:36:44.787Z,11.03
2022-11-09T06:41:49.888Z,10.98
2022-11-09T06:46:53.613Z,10.94
2022-11-09T06:51:57.254Z,10.93
2022-11-09T06:57:02.532Z,10.95
2022-11-09T07:02:06.443Z,10.97
2022-11-09T07:07:10.255Z,10.95
2022-11-09T07:12:15.315Z,10.96
2022-11-09T07:17:18.981Z,10.98
2022-11-09T07:22:22.631Z,11.04
2022-11-09T07:27:28.461Z,11.07
2022-11-09T07:38:01.299Z,11.14
2022-11-09T07:43:07.687Z,11.16
2022-11-09T07:48:14.294Z,11.20
2022-11-09T07:53:18.411Z,11.25
2022-11-09T07:58:23.745Z,11.27
2022-11-09T08:03:27.469Z,11.37
2022-11-09T08:08:31.350Z,11.47
2022-11-09T08:13:36.375Z,11.49
2022-11-09T08:18:40.186Z,11.57
2022-11-09T08:23:43.857Z,11.61
2022-11-09T08:28:48.901Z,11.66
2022-11-09T08:33:52.680Z,11.68
2022-11-09T08:38:59.183Z,11.79
2022-11-09T08:44:04.423Z,11.77
2022-11-09T08:49:08.080Z,11.86
2022-11-09T08:54:14.034Z,11.91
2022-11-09T08:59:19.115Z,12.00
2022-11-09T09:04:22.952Z,12.09
2022-11-09T09:09:26.648Z,12.07
2022-11-09T09:14:31.787Z,12.16
2022-11-09T09:19:35.707Z,12.20
2022-11-09T09:24:39.468Z,12.36
2022-11-09T09:29:44.517Z,12.49
2022-11-09T09:34:48.206Z,12.61
2022-11-09T09:39:52.143Z,12.67
2022-11-09T09:45:03.005Z,12.74
2022-11-09T09:50:13.859Z,12.75
2022-11-09T09:55:22.784Z,12.60
2022-11-09T10:00:28.998Z,12.75
2022-11-09T10:05:45.532Z,12.95
2022-11-09T10:11:05.891Z,13.11
2022-11-09T10:16:18.409Z,13.26
2022-11-09T10:21:36.281Z,13.19
2022-11-09T10:26:44.106Z,13.24
2022-11-09T10:31:52.275Z,13.36
2022-11-09T10:37:02.443Z,13.51
2022-11-09T10:42:06.117Z,13.19
2022-11-09T10:47:29.565Z,13.16
2022-11-09T10:52:51.673Z,13.25
2022-11-09T10:58:24.724Z,13.42
2022-11-09T11:03:52.218Z,13.44
2022-11-09T11:09:21.846Z,13.29
2022-11-09T11:14:45.253Z,13.25
2022-11-09T11:20:31.394Z,13.35
2022-11-09T11:26:05.660Z,13.32
2022-11-09T11:31:27.879Z,13.27
2022-11-09T11:37:06.932Z,13.12
2022-11-09T11:43:06.672Z,13.02
2022-11-09T11:48:58.899Z,12.92
2022-11-09T11:54:32.055Z,13.12
2022-11-09T12:00:10.159Z,13.11
2022-11-09T12:06:00.664Z,13.17
2022-11-09T12:11:36.037Z,13.29
2022-11-09T12:17:07.315Z,13.58
2022-11-09T12:22:40.570Z,13.76
2022-11-09T12:28:15.688Z,14.73
2022-11-09T12:33:45.765Z,16.06
2022-11-09T12:39:13.010Z,16.20
2022-11-09T12:44:41.683Z,16.70
2022-11-09T12:50:04.939Z,17.90
2022-11-09T12:55:36.718Z,18.25
2022-11-09T13:01:01.682Z,18.51
2022-11-09T13:06:26.065Z,18.44
2022-11-09T13:11:50.716Z,18.91
2022-11-09T13:17:49.296Z,17.83
2022-11-09T13:23:59.393Z,18.27
2022-11-09T13:29:26.638Z,17.40
2022-11-09T13:34:49.731Z,18.40
2022-11-09T13:40:45.855Z,17.09
2022-11-09T13:46:25.962Z,16.44
2022-11-09T13:51:49.041Z,16.17
2022-11-09T13:57:12.543Z,15.50
2022-11-09T14:02:34.533Z,16.28
2022-11-09T14:07:56.979Z,17.01
2022-11-09T14:13:41.738Z,16.69
2022-11-09T14:19:14.682Z,15.95
2022-11-09T14:24:39.140Z,15.73
2022-11-09T14:30:02.654Z,15.68
2022-11-09T14:35:28.364Z,15.61
2022-11-09T14:40:53.087Z,15.56
2022-11-09T14:46:20.120Z,15.54
2022-11-09T14:51:42.249Z,15.15
2022-11-09T14:57:04.002Z,14.88
2022-11-09T15:02:27.398Z,14.54
2022-11-09T15:07:49.649Z,14.55
2022-11-09T15:13:11.643Z,14.50
2022-11-09T15:18:37.878Z,14.35
2022-11-09T15:24:05.746Z,14.25
2022-11-09T15:29:37.991Z,14.11
2022-11-09T15:35:01.255Z,14.08
2022-11-09T15:40:25.757Z,14.09
2022-11-09T15:45:47.619Z,13.77
2022-11-09T15:51:11.141Z,13.67
2022-11-09T15:56:32.994Z,13.59
2022-11-09T16:01:54.843Z,13.46
2022-11-09T16:07:18.332Z,13.45
2022-11-09T16:12:45.291Z,13.43
2022-11-09T16:18:08.308Z,13.33
2022-11-09T16:23:31.501Z,13.21
2022-11-09T16:28:55.642Z,13.27
2022-11-09T16:34:17.408Z,13.12
2022-11-09T16:39:40.503Z,13.01
2022-11-09T16:45:08.777Z,12.99
2022-11-09T16:50:30.404Z,12.82
2022-11-09T16:55:53.755Z,12.71
2022-11-09T17:01:19.249Z,12.60
2022-11-09T17:06:43.624Z,12.67
2022-11-09T17:12:07.150Z,12.52
2022-11-09T17:17:29.302Z,12.51
2022-11-09T17:22:51.381Z,12.48
2022-11-09T17:28:14.449Z,12.51
2022-11-09T17:33:36.156Z,12.38
2022-11-09T17:38:58.073Z,12.57
2022-11-09T17:44:21.217Z,12.48
2022-11-09T17:49:43.127Z,12.31
2022-11-09T17:55:05.239Z,12.22
2022-11-09T18:00:28.517Z,12.24
2022-11-09T18:05:50.277Z,12.12
2022-11-09T18:11:12.743Z,12.02
2022-11-09T18:16:35.940Z,11.92
2022-11-09T18:22:01.183Z,11.95
2022-11-09T18:27:29.949Z,11.86
2022-11-09T18:32:53.801Z,11.92
2022-11-09T18:38:19.946Z,11.89
2022-11-09T18:43:42.675Z,11.76
2022-11-09T18:49:10.225Z,11.79
2022-11-09T18:54:36.351Z,11.68
2022-11-09T18:59:58.468Z,11.51
2022-11-09T19:05:21.966Z,11.47
2022-11-09T19:10:43.684Z,11.38
2022-11-09T19:16:06.258Z,11.41
2022-11-09T19:21:38.197Z,11.31
2022-11-09T19:27:01.597Z,11.29
2022-11-09T19:32:23.715Z,11.17
2022-11-09T19:37:46.954Z,11.13
2022-11-09T19:43:08.782Z,11.16
2022-11-09T19:48:32.102Z,11.15
2022-11-09T19:53:57.038Z,11.12
2022-11-09T19:59:20.864Z,11.11
2022-11-09T20:04:43.567Z,10.96
2022-11-09T20:10:09.037Z,10.90
2022-11-09T20:15:32.971Z,10.95
2022-11-09T20:20:54.913Z,10.84
2022-11-09T20:26:18.088Z,10.79
2022-11-09T20:31:40.532Z,10.72
2022-11-09T20:37:02.313Z,10.61
2022-11-09T20:42:25.403Z,10.57
2022-11-09T20:48:07.518Z,10.55
2022-11-09T20:53:29.719Z,10.47
2022-11-09T20:58:53.098Z,10.48
2022-11-09T21:04:15.126Z,10.46
2022-11-09T21:09:37.435Z,10.48
2022-11-09T21:15:00.692Z,10.36
2022-11-09T21:20:22.327Z,10.39
2022-11-09T21:26:02.964Z,10.36
2022-11-09T21:31:26.398Z,10.29
2022-11-09T21:36:48.199Z,10.30
2022-11-09T21:42:11.965Z,10.23
2022-11-09T21:47:35.399Z,10.22
2022-11-09T21:52:57.134Z,10.21
2022-11-09T21:58:19.003Z,10.18
2022-11-09T22:03:42.418Z,10.12
2022-11-09T22:09:04.627Z,10.18
2022-11-09T22:14:44.739Z,10.13
2022-11-09T22:20:27.228Z,10.05
2022-11-09T22:25:49.191Z,10.01
2022-11-09T22:31:11.897Z,10.05
2022-11-09T22:36:35.027Z,9.86
2022-11-09T22:41:56.821Z,9.88
2022-11-09T22:47:18.563Z,9.89
2022-11-09T22:52:41.613Z,9.86
2022-11-09T22:58:03.166Z,9.86
2022-11-09T23:03:24.901Z,9.89
2022-11-09T23:08:48.409Z,9.78
2022-11-09T23:14:10.779Z,9.81
2022-11-09T23:19:32.611Z,9.80
2022-11-09T23:25:12.976Z,9.73
2022-11-09T23:30:34.958Z,9.66
2022-11-09T23:35:57.352Z,9.64
2022-11-09T23:41:20.760Z,9.59
2022-11-09T23:46:42.732Z,9.55
2022-11-09T23:52:04.627Z,9.53
2022-11-09T23:57:29.074Z,9.53
